Wonnie, Kentucky
Current Conditions -  °F | °C
As of 11:53 PM on Friday 28 Nov 2014 (Local Time) from KJKL Reporting Station
Clear Clear  
Wind Chill: 29°   Ceiling: Unl
Heat Index: 33°   Visibility: 10mi
Dew Point: 16°   Wind: 5mph
Humidity: 50%   Direction: 190°S
Pressure: 30.12"   Gusts: NA
Location:  37.7261°N, 83.0786°W
Report Text: KJKL 290453Z AUTO 19004KT 10SM CLR 01/M09 A3012 RMK AO2 SLP207 T00061089 400221033
Loading
Personal Weather Stations






























Interactive Weather Map New forecast layout! Learn more

10-Day Weather Forecast

Advertisements
Track Severe Weather on mobile